Time;durP1;ratioP1;P1;durP2;ratioP2;P2;SDS_P1;SDS_P2;PMS_P1;PMS_P2;Temp;Humidity;BMP_temperature;BMP_pressure;BME280_temperature;BME280_humidity;BME280_pressure;Samples;Min_cycle;Max_cycle;Signal;HPM_P1;HPM_P2
2022/09/24 00:02:09;;;;;;;9.50;9.00;;;;;;;;;;1876121;76;26274;-76
2022/09/24 00:04:36;;;;;;;9.70;9.10;;;;;;;;;;1875596;76;26675;-77
2022/09/24 00:07:04;;;;;;;9.93;9.27;;;;;;;;;;1876038;76;26275;-76
2022/09/24 00:09:33;;;;;;;9.50;9.00;;;;;;;;;;1875949;76;26201;-76
2022/09/24 00:12:03;;;;;;;10.00;9.40;;;;;;;;;;1876093;76;26282;-76
2022/09/24 00:14:32;;;;;;;9.93;9.43;;;;;;;;;;1876031;76;26240;-77
2022/09/24 00:17:00;;;;;;;9.60;9.10;;;;;;;;;;1876016;76;26305;-76
2022/09/24 00:19:29;;;;;;;10.43;9.67;;;;;;;;;;1876005;76;26217;-76
2022/09/24 00:21:57;;;;;;;9.97;9.43;;;;;;;;;;1827362;78;26278;-75
2022/09/24 00:27:12;;;;;;;9.97;9.30;;;;;;;;;;1848957;77;26303;-76
2022/09/24 00:29:40;;;;;;;10.30;9.70;;;;;;;;;;1876082;76;26802;-76
2022/09/24 00:32:12;;;;;;;10.30;9.60;;;;;;;;;;1876086;76;26208;-76
2022/09/24 00:34:40;;;;;;;9.83;9.23;;;;;;;;;;1876264;76;26532;-77
2022/09/24 00:37:09;;;;;;;10.50;9.80;;;;;;;;;;1876075;76;26274;-77
2022/09/24 00:39:38;;;;;;;10.17;9.57;;;;;;;;;;1876091;76;26294;-77
2022/09/24 00:42:06;;;;;;;10.73;9.80;;;;;;;;;;1876128;76;26319;-76
2022/09/24 00:44:55;;;;;;;11.60;10.60;;;;;;;;;;1876107;76;26330;-77
2022/09/24 00:47:26;;;;;;;11.97;10.90;;;;;;;;;;1876096;76;26598;-78
2022/09/24 00:49:56;;;;;;;13.77;12.13;;;;;;;;;;1853186;77;26672;-76
2022/09/24 00:52:25;;;;;;;12.87;11.70;;;;;;;;;;1876117;76;26292;-76
2022/09/24 00:54:53;;;;;;;12.77;11.57;;;;;;;;;;1876091;76;26319;-76
2022/09/24 00:57:22;;;;;;;12.30;11.30;;;;;;;;;;1876019;76;26702;-76
2022/09/24 00:59:52;;;;;;;12.67;11.63;;;;;;;;;;1876029;75;26394;-76
2022/09/24 01:02:21;;;;;;;12.80;11.70;;;;;;;;;;1876098;76;26341;-77
2022/09/24 01:04:49;;;;;;;11.83;10.77;;;;;;;;;;1876027;76;26205;-77
2022/09/24 01:07:18;;;;;;;11.90;11.07;;;;;;;;;;1876156;76;26296;-77
2022/09/24 01:09:46;;;;;;;13.03;11.87;;;;;;;;;;1875993;76;26294;-77
2022/09/24 01:12:16;;;;;;;12.30;11.33;;;;;;;;;;1876219;76;26230;-77
2022/09/24 01:14:50;;;;;;;13.23;11.70;;;;;;;;;;1876006;76;26217;-77
2022/09/24 01:17:21;;;;;;;12.17;11.03;;;;;;;;;;1875796;76;26256;-77
2022/09/24 01:20:03;;;;;;;13.97;11.97;;;;;;;;;;1876045;76;26208;-77
2022/09/24 01:22:35;;;;;;;15.53;12.87;;;;;;;;;;1875984;76;26357;-77
2022/09/24 01:25:05;;;;;;;12.97;11.80;;;;;;;;;;1876029;76;26312;-77
2022/09/24 01:27:38;;;;;;;12.67;11.47;;;;;;;;;;1876067;76;26628;-77
2022/09/24 01:30:09;;;;;;;13.53;12.13;;;;;;;;;;1875933;76;26208;-77
2022/09/24 01:32:39;;;;;;;11.90;10.90;;;;;;;;;;1876017;76;26786;-77
2022/09/24 01:35:12;;;;;;;12.17;11.07;;;;;;;;;;1876098;76;26197;-77
2022/09/24 01:37:42;;;;;;;11.67;10.57;;;;;;;;;;1876035;76;26207;-77
2022/09/24 01:40:12;;;;;;;11.57;10.40;;;;;;;;;;1853157;77;26625;-77
2022/09/24 01:42:42;;;;;;;11.30;10.50;;;;;;;;;;1875994;76;26367;-77
2022/09/24 01:45:11;;;;;;;11.13;10.43;;;;;;;;;;1875983;76;26265;-77
2022/09/24 01:47:41;;;;;;;11.13;10.33;;;;;;;;;;1876071;76;26645;-77
2022/09/24 01:50:11;;;;;;;11.37;10.50;;;;;;;;;;1876087;76;26235;-77
2022/09/24 01:52:41;;;;;;;10.90;10.10;;;;;;;;;;1875971;76;26275;-77
2022/09/24 01:55:11;;;;;;;10.33;9.53;;;;;;;;;;1876022;76;26201;-77
2022/09/24 01:57:41;;;;;;;10.93;9.97;;;;;;;;;;1876099;76;26238;-77
2022/09/24 02:00:11;;;;;;;10.27;9.57;;;;;;;;;;1875981;74;26249;-77
2022/09/24 02:02:44;;;;;;;9.80;9.20;;;;;;;;;;1876018;76;26289;-77
2022/09/24 02:05:14;;;;;;;10.80;10.10;;;;;;;;;;1827401;78;26204;-77
2022/09/24 02:07:44;;;;;;;10.07;9.33;;;;;;;;;;1827539;78;26340;-76
2022/09/24 02:10:15;;;;;;;10.20;9.50;;;;;;;;;;1846502;78;26205;-77
2022/09/24 02:12:44;;;;;;;10.63;9.77;;;;;;;;;;1847489;78;26294;-77
2022/09/24 02:15:14;;;;;;;10.27;9.63;;;;;;;;;;1847488;78;26305;-77
2022/09/24 02:17:44;;;;;;;10.83;10.13;;;;;;;;;;1847483;78;26221;-77
2022/09/24 02:20:13;;;;;;;10.00;9.20;;;;;;;;;;1846559;78;26683;-77
2022/09/24 02:22:43;;;;;;;10.17;9.37;;;;;;;;;;1842126;78;26228;-77
2022/09/24 02:25:13;;;;;;;10.17;9.37;;;;;;;;;;1843099;78;26255;-77
2022/09/24 02:27:42;;;;;;;10.20;9.43;;;;;;;;;;1842997;78;26704;-77
2022/09/24 02:36:05;;;;;;;10.10;9.50;;;;;;;10.60;100.00;99964.16;1950398;73;26188;-76
2022/09/24 02:38:36;;;;;;;9.80;9.20;;;;;;;10.45;100.00;99962.48;1950348;73;26697;-76
2022/09/24 02:41:07;;;;;;;11.47;10.30;;;;;;;10.62;100.00;99961.32;1950366;73;26209;-76
2022/09/24 02:43:39;;;;;;;10.20;9.30;;;;;;;10.66;100.00;99960.13;1950339;73;26711;-77
2022/09/24 02:46:10;;;;;;;9.90;9.30;;;;;;;10.80;100.00;99960.98;1916612;75;26195;-77
2022/09/24 02:48:40;;;;;;;10.33;9.47;;;;;;;10.91;100.00;99961.05;1916713;75;26215;-77
2022/09/24 02:51:10;;;;;;;10.10;9.30;;;;;;;10.83;100.00;99968.69;1916683;75;26626;-77
2022/09/24 02:53:40;;;;;;;10.23;9.40;;;;;;;10.93;100.00;99960.16;1916616;75;26215;-77
2022/09/24 02:56:10;;;;;;;10.87;9.93;;;;;;;10.96;100.00;99961.74;1916692;75;26674;-77
2022/09/24 02:58:42;;;;;;;10.87;9.97;;;;;;;10.99;100.00;99964.48;1916585;75;26775;-77
2022/09/24 03:01:12;;;;;;;10.97;9.87;;;;;;;10.92;100.00;99958.50;1916735;75;26349;-77
2022/09/24 03:03:42;;;;;;;10.63;9.67;;;;;;;10.79;100.00;99967.66;1916631;75;26178;-77
2022/09/24 03:06:12;;;;;;;10.37;9.43;;;;;;;10.87;100.00;99966.93;1916598;75;26194;-77
2022/09/24 03:08:43;;;;;;;10.47;9.50;;;;;;;10.91;100.00;99963.23;1916601;75;26187;-76
2022/09/24 03:11:14;;;;;;;10.90;9.97;;;;;;;10.93;100.00;99962.94;1916720;75;26187;-76
2022/09/24 03:13:44;;;;;;;10.27;9.53;;;;;;;10.98;100.00;99963.39;1916626;75;26216;-76
2022/09/24 03:16:15;;;;;;;10.63;9.83;;;;;;;10.96;100.00;99973.42;1916717;75;26651;-76
2022/09/24 03:18:47;;;;;;;10.00;9.30;;;;;;;10.83;100.00;99969.52;1916769;75;26313;-76
2022/09/24 03:21:19;;;;;;;10.57;9.90;;;;;;;10.73;100.00;99963.35;1916616;75;26324;-76
2022/09/24 03:23:49;;;;;;;10.03;9.33;;;;;;;10.72;100.00;99970.03;1916718;75;26235;-76
2022/09/24 03:26:19;;;;;;;10.27;9.47;;;;;;;10.60;100.00;99964.16;1916689;75;26264;-76
2022/09/24 03:28:49;;;;;;;9.73;9.13;;;;;;;10.60;100.00;99971.93;1916616;75;26212;-76
2022/09/24 03:31:23;;;;;;;9.57;8.87;;;;;;;10.55;100.00;99969.80;1916526;75;26630;-76
2022/09/24 03:33:52;;;;;;;10.03;9.37;;;;;;;10.54;100.00;99969.54;1916889;75;26252;-76
2022/09/24 03:36:23;;;;;;;10.00;9.30;;;;;;;10.48;100.00;99963.28;1916742;75;26293;-76
2022/09/24 03:38:55;;;;;;;9.93;9.10;;;;;;;10.49;100.00;99971.84;1916735;75;26211;-76
2022/09/24 03:41:27;;;;;;;10.43;9.53;;;;;;;10.43;100.00;99961.98;1916750;75;26316;-77
2022/09/24 03:43:57;;;;;;;9.97;9.17;;;;;;;10.41;100.00;99973.38;1916126;75;26680;-76
2022/09/24 03:46:28;;;;;;;9.67;9.00;;;;;;;10.31;100.00;99973.55;1915977;75;26249;-77
2022/09/24 03:49:00;;;;;;;10.10;9.40;;;;;;;10.32;100.00;99973.81;1915974;75;26246;-77
2022/09/24 03:51:30;;;;;;;10.40;9.40;;;;;;;10.35;100.00;99974.62;1916024;75;26626;-77
2022/09/24 03:54:00;;;;;;;10.10;9.40;;;;;;;10.39;100.00;99974.27;1916061;75;26321;-76
2022/09/24 03:56:30;;;;;;;10.80;10.13;;;;;;;10.37;100.00;99968.74;1916086;75;26191;-76
2022/09/24 03:59:00;;;;;;;10.07;9.40;;;;;;;10.37;100.00;99975.12;1876148;76;26766;-77
2022/09/24 04:04:31;;;;;;;11.00;10.20;;;;;;;10.33;100.00;99987.97;2013596;71;27628;-78
2022/09/24 04:07:02;;;;;;;10.17;9.43;;;;;;;10.22;100.00;99977.35;1950410;73;26249;-78
2022/09/24 04:09:32;;;;;;;10.47;9.83;;;;;;;10.18;100.00;99975.76;1909552;75;26711;-77
2022/09/24 04:12:04;;;;;;;10.70;10.00;;;;;;;10.22;100.00;99976.80;1909514;75;26708;-77
2022/09/24 04:14:34;;;;;;;10.87;10.07;;;;;;;10.13;100.00;99984.13;1909323;75;26188;-77
2022/09/24 04:17:04;;;;;;;10.67;9.83;;;;;;;10.11;100.00;99984.98;1909295;75;26647;-78
2022/09/24 04:19:34;;;;;;;11.43;10.53;;;;;;;10.15;100.00;99986.05;1909421;75;26263;-77
2022/09/24 04:22:04;;;;;;;12.53;11.43;;;;;;;10.09;100.00;99993.36;1909484;75;26790;-78
2022/09/24 04:24:34;;;;;;;11.33;10.43;;;;;;;10.04;100.00;99990.11;1909453;75;26216;-78
2022/09/24 04:27:04;;;;;;;12.00;11.03;;;;;;;9.99;100.00;99992.40;1909273;75;26292;-77
2022/09/24 04:29:34;;;;;;;11.20;10.37;;;;;;;10.01;100.00;99985.97;1909438;75;26198;-77
2022/09/24 04:32:04;;;;;;;11.63;10.73;;;;;;;10.11;100.00;99989.70;1876659;75;26252;-77
2022/09/24 04:34:34;;;;;;;11.13;10.40;;;;;;;10.11;100.00;99991.92;1909358;75;26323;-78
2022/09/24 04:37:05;;;;;;;11.20;10.40;;;;;;;10.14;100.00;99995.47;1909418;75;26693;-78
2022/09/24 04:39:37;;;;;;;11.30;10.40;;;;;;;10.08;100.00;99998.64;1909387;75;26724;-78
2022/09/24 04:42:07;;;;;;;11.97;11.10;;;;;;;10.12;100.00;99994.96;1909160;75;26210;-78
2022/09/24 04:44:37;;;;;;;12.10;11.10;;;;;;;10.11;100.00;99998.86;1895901;75;26372;-78
2022/09/24 04:47:10;;;;;;;11.50;10.70;;;;;;;10.20;100.00;100005.95;1876662;76;26205;-78
2022/09/24 04:49:39;;;;;;;12.00;11.07;;;;;;;10.12;100.00;100003.28;1877027;76;26632;-78
2022/09/24 04:52:09;;;;;;;11.63;10.80;;;;;;;10.17;100.00;100008.79;1876649;76;26201;-78
2022/09/24 04:54:39;;;;;;;12.00;11.10;;;;;;;10.18;100.00;100011.83;1876766;76;26707;-76
2022/09/24 04:57:09;;;;;;;12.17;11.30;;;;;;;10.17;100.00;100012.95;1876665;76;26206;-76
2022/09/24 04:59:39;;;;;;;12.30;11.33;;;;;;;10.13;100.00;100011.05;1876810;76;26644;-76
2022/09/24 05:02:10;;;;;;;12.67;11.73;;;;;;;10.15;100.00;100010.17;1876697;76;26274;-75
2022/09/24 05:04:40;;;;;;;13.90;12.60;;;;;;;10.08;100.00;100013.34;1876778;75;26326;-75
2022/09/24 05:07:11;;;;;;;14.43;12.93;;;;;;;10.02;100.00;100020.09;1876662;76;26644;-76
2022/09/24 05:09:41;;;;;;;15.30;13.70;;;;;;;10.03;100.00;100014.25;1876705;76;26210;-76
2022/09/24 05:12:11;;;;;;;15.17;13.60;;;;;;;10.00;100.00;100014.86;1876677;76;26217;-76
2022/09/24 05:14:41;;;;;;;13.87;12.67;;;;;;;9.97;100.00;100018.78;1876299;76;26636;-76
2022/09/24 05:17:11;;;;;;;14.53;13.20;;;;;;;10.00;100.00;100019.02;1876082;76;26303;-76
2022/09/24 05:19:41;;;;;;;13.63;12.50;;;;;;;9.91;100.00;100016.67;1876069;76;26237;-76
2022/09/24 05:22:12;;;;;;;15.40;13.97;;;;;;;10.00;100.00;100019.58;1876158;76;26314;-76
2022/09/24 05:24:42;;;;;;;15.63;14.23;;;;;;;9.99;100.00;100017.36;1876062;76;26208;-76
2022/09/24 05:27:12;;;;;;;16.53;14.93;;;;;;;10.00;100.00;100020.97;1876144;76;26637;-75
2022/09/24 05:29:43;;;;;;;16.57;14.97;;;;;;;10.00;100.00;100019.02;1876087;76;26295;-77
2022/09/24 05:32:16;;;;;;;16.93;15.27;;;;;;;10.01;100.00;100013.71;1876163;76;26230;-78
2022/09/24 05:34:47;;;;;;;16.87;15.27;;;;;;;10.00;100.00;100025.96;1876077;76;26359;-77
2022/09/24 05:37:18;;;;;;;17.53;15.97;;;;;;;9.93;100.00;100024.11;1876054;76;26209;-78
2022/09/24 05:39:48;;;;;;;18.13;16.47;;;;;;;9.94;100.00;100024.38;1876107;76;26709;-78
2022/09/24 05:42:19;;;;;;;18.10;16.40;;;;;;;9.94;100.00;100033.26;1876160;76;26409;-78
2022/09/24 05:44:49;;;;;;;17.90;16.10;;;;;;;9.96;100.00;100032.41;1876105;75;26273;-78
2022/09/24 05:47:19;;;;;;;19.13;17.30;;;;;;;9.92;100.00;100030.80;1876066;76;26193;-78
2022/09/24 05:49:49;;;;;;;17.80;16.30;;;;;;;9.94;100.00;100035.47;1876091;76;26217;-78
2022/09/24 05:52:19;;;;;;;18.33;16.70;;;;;;;9.93;100.00;100039.92;1876039;76;26289;-77
2022/09/24 05:54:49;;;;;;;18.20;16.50;;;;;;;9.95;100.00;100041.29;1876043;76;26206;-78
2022/09/24 05:57:19;;;;;;;17.50;16.10;;;;;;;9.92;100.00;100042.46;1876046;76;26698;-79
2022/09/24 05:59:50;;;;;;;18.77;17.10;;;;;;;9.97;100.00;100043.19;1876182;76;26381;-78
2022/09/24 06:02:20;;;;;;;18.00;16.50;;;;;;;9.95;100.00;100039.08;1876047;76;26306;-78
2022/09/24 06:04:50;;;;;;;18.27;16.50;;;;;;;9.91;100.00;100042.19;1875952;75;26256;-78
2022/09/24 06:07:20;;;;;;;17.20;15.80;;;;;;;10.04;100.00;100043.65;1876198;76;26664;-78
2022/09/24 06:09:51;;;;;;;18.37;16.67;;;;;;;10.09;100.00;100046.08;1876089;76;26748;-78
2022/09/24 06:12:22;;;;;;;19.07;17.27;;;;;;;10.10;100.00;100047.73;1876109;76;26208;-77
2022/09/24 06:14:53;;;;;;;18.07;16.67;;;;;;;10.14;100.00;100057.91;1876159;76;26646;-78
2022/09/24 06:17:23;;;;;;;18.67;17.03;;;;;;;10.18;100.00;100059.01;1876250;76;26656;-77
2022/09/24 06:19:54;;;;;;;17.57;16.07;;;;;;;10.14;100.00;100062.06;1876171;76;26295;-78
2022/09/24 06:22:24;;;;;;;17.47;15.63;;;;;;;10.17;100.00;100067.63;1876062;76;26271;-77
2022/09/24 06:24:54;;;;;;;18.60;16.53;;;;;;;10.18;100.00;100068.72;1876098;76;26209;-78
2022/09/24 06:27:25;;;;;;;17.80;16.30;;;;;;;10.26;100.00;100069.98;1876006;76;26208;-78
2022/09/24 06:29:55;;;;;;;17.23;15.77;;;;;;;10.35;100.00;100075.94;1876147;76;26241;-78
2022/09/24 06:32:25;;;;;;;18.03;16.23;;;;;;;10.41;100.00;100083.59;1876118;76;26213;-79
2022/09/24 06:34:55;;;;;;;17.27;15.73;;;;;;;10.52;100.00;100078.16;1876040;76;26271;-78
2022/09/24 06:37:26;;;;;;;17.20;15.80;;;;;;;10.57;100.00;100081.41;1876082;76;26709;-78
2022/09/24 06:39:56;;;;;;;18.47;16.77;;;;;;;10.65;100.00;100084.87;1876214;76;26656;-78
2022/09/24 06:42:26;;;;;;;16.57;15.00;;;;;;;10.70;100.00;100081.42;1876050;76;26217;-78
2022/09/24 06:44:57;;;;;;;17.13;15.60;;;;;;;10.77;100.00;100085.21;1875948;75;26754;-78
2022/09/24 06:47:29;;;;;;;16.67;15.37;;;;;;;10.74;100.00;100088.61;1876197;76;26798;-78
2022/09/24 06:49:59;;;;;;;17.97;16.33;;;;;;;10.83;100.00;100096.47;1876125;76;26688;-78
2022/09/24 06:52:31;;;;;;;16.40;15.10;;;;;;;10.78;100.00;100093.81;1876117;76;26324;-78
2022/09/24 06:58:08;;;;;;;16.63;15.17;;;;;;;11.14;100.00;100094.78;1977781;72;27730;-77
2022/09/24 07:03:40;;;;;;;16.30;14.83;;;;;;;11.35;100.00;100092.42;2022340;71;27993;-76
2022/09/24 07:09:12;;;;;;;14.63;13.43;;;;;;;11.46;100.00;100101.39;2002921;71;27542;-77
2022/09/24 07:11:43;;;;;;;14.33;13.23;;;;;;;11.37;100.00;100101.30;1936355;73;26193;-76
2022/09/24 07:14:14;;;;;;;13.97;12.70;;;;;;;11.41;100.00;100105.92;1934855;73;26216;-77
2022/09/24 07:16:45;;;;;;;14.63;13.33;;;;;;;11.54;100.00;100108.45;1937640;74;26681;-77
2022/09/24 07:19:15;;;;;;;14.27;13.17;;;;;;;11.53;100.00;100112.92;1937698;73;26252;-77
2022/09/24 07:21:48;;;;;;;14.33;13.23;;;;;;;11.62;100.00;100111.89;1936080;73;26690;-77
2022/09/24 07:24:18;;;;;;;14.53;13.40;;;;;;;11.70;100.00;100117.29;1937332;73;26278;-76
2022/09/24 07:26:48;;;;;;;15.23;14.00;;;;;;;11.74;100.00;100123.34;1932759;73;26707;-77
2022/09/24 07:29:18;;;;;;;13.63;12.47;;;;;;;11.84;100.00;100117.57;1933861;73;26278;-79
2022/09/24 07:31:48;;;;;;;14.20;12.97;;;;;;;12.09;100.00;100113.39;1934037;73;26656;-77
2022/09/24 07:34:19;;;;;;;13.37;12.40;;;;;;;12.18;100.00;100113.47;1933384;73;26260;-77
2022/09/24 07:36:49;;;;;;;13.80;12.80;;;;;;;12.40;100.00;100118.25;1935554;73;26266;-77
2022/09/24 07:39:19;;;;;;;13.13;12.13;;;;;;;12.38;100.00;100119.95;1932691;73;26278;-77
2022/09/24 07:41:51;;;;;;;13.17;12.07;;;;;;;12.58;100.00;100113.88;1937540;73;26605;-76
2022/09/24 07:44:21;;;;;;;12.80;12.00;;;;;;;12.84;100.00;100122.41;1927669;73;26281;-77
2022/09/24 07:46:52;;;;;;;13.30;12.10;;;;;;;13.00;100.00;100118.11;1903931;75;26196;-76
2022/09/24 07:49:23;;;;;;;12.30;11.47;;;;;;;13.67;100.00;100117.36;1858631;76;26648;-78
2022/09/24 07:51:53;;;;;;;12.23;11.43;;;;;;;14.17;100.00;100112.77;1853302;76;26248;-77
2022/09/24 07:54:23;;;;;;;12.47;11.67;;;;;;;14.39;100.00;100109.04;1855729;76;26258;-78
2022/09/24 07:56:53;;;;;;;14.03;13.00;;;;;;;15.98;100.00;100109.56;1864734;77;26197;-77
2022/09/24 07:59:24;;;;;;;13.37;12.47;;;;;;;15.99;100.00;100105.03;1857278;76;26247;-78
2022/09/24 08:01:54;;;;;;;14.23;13.13;;;;;;;16.41;100.00;100110.08;1854786;76;26242;-78
2022/09/24 08:04:25;;;;;;;17.33;16.03;;;;;;;16.11;100.00;100098.11;1859628;76;26702;-78
2022/09/24 08:06:55;;;;;;;18.07;16.77;;;;;;;16.34;100.00;100094.40;1903987;75;26633;-78
2022/09/24 08:09:25;;;;;;;14.77;13.67;;;;;;;17.28;100.00;100089.24;1904048;74;26236;-79
2022/09/24 08:11:55;;;;;;;14.07;13.27;;;;;;;16.51;100.00;100091.45;1864966;77;26281;-78
2022/09/24 08:14:26;;;;;;;15.63;14.43;;;;;;;18.01;100.00;100072.41;1865278;77;24551;-81
2022/09/24 08:16:56;;;;;;;13.30;12.47;;;;;;;18.01;100.00;100072.41;1864645;77;24147;-78
2022/09/24 08:19:27;;;;;;;13.07;12.10;;;;;;;18.51;100.00;100065.50;1864264;77;24642;-78
2022/09/24 08:21:57;;;;;;;11.30;10.60;;;;;;;18.77;100.00;100065.07;1864004;77;26332;-79
2022/09/24 08:24:30;;;;;;;11.63;10.93;;;;;;;19.47;100.00;100063.34;1903337;75;26301;-79
2022/09/24 08:27:00;;;;;;;11.23;10.53;;;;;;;20.76;100.00;100060.27;1903453;75;24191;-79
2022/09/24 08:29:30;;;;;;;9.70;9.20;;;;;;;21.19;100.00;100059.11;1863986;77;26802;-79
2022/09/24 08:32:01;;;;;;;10.27;9.67;;;;;;;21.92;100.00;100053.67;1864052;77;24225;-80
2022/09/24 08:34:37;;;;;;;9.20;8.60;;;;;;;19.34;100.00;100058.98;1864005;77;24193;-80
2022/09/24 08:37:03;;;;;;;9.40;8.70;;;;;;;18.52;100.00;100062.93;1863778;77;24154;-80
2022/09/24 08:39:35;;;;;;;9.20;8.70;;;;;;;18.85;100.00;100059.28;1903489;75;24551;-79
2022/09/24 08:42:08;;;;;;;9.90;9.40;;;;;;;16.97;100.00;100072.70;1903490;75;24125;-79
2022/09/24 08:47:36;;;;;;;10.07;9.33;;;;;;;20.48;100.00;100056.88;1864098;77;24237;-80
2022/09/24 08:53:18;;;;;;;8.93;8.43;;;;;;;18.74;100.00;100101.75;2060882;69;25880;-78
2022/09/24 08:55:49;;;;;;;8.93;8.33;;;;;;;23.58;100.00;100086.32;1940626;73;24171;-79
2022/09/24 08:58:42;;;;;;;7.90;7.55;;;;;;;26.00;100.00;100086.16;2016615;71;24224;-80
2022/09/24 09:01:19;;;;;;;9.43;8.83;;;;;;;22.21;100.00;100089.09;2016842;71;24092;-80
2022/09/24 09:03:54;;;;;;;8.53;8.13;;;;;;;23.33;100.00;100084.42;2016853;71;24113;-79
2022/09/24 09:06:43;;;;;;;8.90;8.40;;;;;;;27.97;100.00;100080.76;2016683;71;24580;-79
2022/09/24 09:09:16;;;;;;;8.73;8.15;;;;;;;28.81;100.00;100049.66;2016388;71;25153;-79
2022/09/24 09:11:49;;;;;;;8.43;7.87;;;;;;;30.60;100.00;100085.80;2016599;71;24234;-80
2022/09/24 09:14:22;;;;;;;8.73;8.15;;;;;;;29.48;100.00;100079.36;1938079;74;24124;-79
2022/09/24 09:16:55;;;;;;;9.10;8.58;;;;;;;22.33;100.00;100085.24;2016736;71;24585;-80
2022/09/24 09:19:28;;;;;;;9.70;9.15;;;;;;;19.22;100.00;100102.09;2016709;71;24622;-79
2022/09/24 09:22:02;;;;;;;9.57;8.77;;;;;;;17.16;100.00;100111.67;1937990;74;24286;-79
2022/09/24 09:24:37;;;;;;;9.77;9.27;;;;;;;16.75;100.00;100117.39;2016486;71;26645;-78
2022/09/24 09:27:13;;;;;;;9.63;9.03;;;;;;;16.42;100.00;100118.73;2016254;71;24216;-79
2022/09/24 09:29:45;;;;;;;9.47;8.73;;;;;;;16.45;100.00;100119.44;1938012;74;24575;-79
2022/09/24 09:32:19;;;;;;;8.67;8.17;;;;;;;16.35;100.00;100122.06;2016477;71;26653;-79
2022/09/24 09:34:54;;;;;;;9.10;8.60;;;;;;;16.28;100.00;100117.59;2015630;71;24177;-79
2022/09/24 09:37:29;;;;;;;9.53;8.90;;;;;;;16.20;100.00;100119.88;2016198;71;24226;-78
2022/09/24 09:40:09;;;;;;;9.60;8.90;;;;;;;16.20;100.00;100122.69;2016460;71;26680;-79
2022/09/24 09:42:41;;;;;;;10.00;9.47;;;;;;;16.26;100.00;100126.09;2016766;71;24203;-79
2022/09/24 09:48:25;;;;;;;9.50;8.73;;;;;;;15.86;100.00;100125.13;2060881;69;25575;-79
2022/09/24 09:50:59;;;;;;;9.40;8.80;;;;;;;16.15;100.00;100122.88;1942145;73;26288;-80
2022/09/24 09:53:31;;;;;;;10.57;9.83;;;;;;;15.97;100.00;100118.55;2016566;71;26186;-80
2022/09/24 09:56:05;;;;;;;11.03;9.30;;;;;;;15.86;100.00;100128.50;2016611;71;26241;-79
2022/09/24 09:58:37;;;;;;;9.70;9.30;;;;;;;15.96;100.00;100123.10;2016534;71;24557;-79
2022/09/24 10:01:09;;;;;;;9.30;8.70;;;;;;;16.24;100.00;100137.66;2016645;71;24218;-81
2022/09/24 10:03:49;;;;;;;8.37;7.87;;;;;;;16.00;100.00;100130.49;2016466;71;26188;-81
2022/09/24 10:06:26;;;;;;;8.27;7.70;;;;;;;16.26;100.00;100118.50;2016361;71;26657;-79
2022/09/24 10:09:07;;;;;;;8.10;7.70;;;;;;;16.24;100.00;100128.42;2016471;71;24154;-81
2022/09/24 10:11:37;;;;;;;8.10;7.60;;;;;;;16.71;100.00;100116.44;2016470;71;24106;-83
2022/09/24 10:14:10;;;;;;;8.67;8.07;;;;;;;16.61;100.00;100119.08;2016619;71;26657;-84
2022/09/24 10:16:43;;;;;;;8.43;7.80;;;;;;;16.57;100.00;100120.08;2016383;71;26672;-84
2022/09/24 10:19:19;;;;;;;8.50;8.03;;;;;;;16.58;100.00;100121.17;1937945;74;24124;-83
2022/09/24 10:21:53;;;;;;;8.70;8.13;;;;;;;16.32;100.00;100118.55;2016581;71;24121;-83
2022/09/24 10:24:26;;;;;;;8.00;7.60;;;;;;;16.19;100.00;100116.83;2016370;71;26263;-78
2022/09/24 10:26:57;;;;;;;7.50;7.10;;;;;;;16.05;100.00;100126.06;2016469;71;24160;-83
2022/09/24 10:32:30;;;;;;;6.90;6.60;;;;;;;16.30;100.00;100103.25;2023142;71;25804;-85
2022/09/24 10:35:00;;;;;;;7.17;6.57;;;;;;;;;;1982701;72;24147;-84
2022/09/24 10:37:29;;;;;;;8.27;7.77;;;;;;;;;;1938682;73;26626;-84
2022/09/24 10:39:58;;;;;;;7.27;6.83;;;;;;;;;;1931808;74;24222;-80
2022/09/24 10:42:27;;;;;;;7.43;6.93;;;;;;;;;;1931711;74;24579;-82
2022/09/24 10:44:57;;;;;;;6.90;6.50;;;;;;;;;;1933842;73;26331;-84
2022/09/24 10:47:32;;;;;;;6.53;6.23;;;;;;;;;;1933789;74;24156;-84
2022/09/24 10:50:19;;;;;;;7.53;7.13;;;;;;;;;;1931412;74;24168;-83
2022/09/24 10:52:49;;;;;;;7.73;7.13;;;;;;;;;;1896595;75;26303;-83
2022/09/24 10:55:30;;;;;;;7.47;7.00;;;;;;;;;;1902921;74;24127;-83
2022/09/24 10:58:02;;;;;;;7.60;6.97;;;;;;;;;;1898408;74;24240;-81
2022/09/24 11:00:33;;;;;;;6.60;6.10;;;;;;;;;;1903752;74;24174;-81
2022/09/24 11:03:17;;;;;;;5.47;5.17;;;;;;;;;;1894523;74;24234;-80
2022/09/24 11:05:48;;;;;;;6.90;6.50;;;;;;;;;;1896593;76;24230;-78
2022/09/24 11:08:20;;;;;;;7.17;6.77;;;;;;;;;;1970099;72;24183;-82
2022/09/24 11:10:55;;;;;;;6.33;5.93;;;;;;;;;;1978987;72;24244;-82
2022/09/24 11:13:26;;;;;;;6.60;6.20;;;;;;;;;;1975828;72;24658;-82
2022/09/24 11:16:00;;;;;;;6.07;5.67;;;;;;;;;;1976266;72;24249;-81
2022/09/24 11:18:32;;;;;;;6.63;6.13;;;;;;;;;;1930100;73;24261;-82
2022/09/24 11:21:03;;;;;;;6.23;5.83;;;;;;;;;;1894245;75;24175;-81
2022/09/24 11:23:36;;;;;;;5.90;5.60;;;;;;;;;;1939953;73;24167;-82
2022/09/24 11:26:07;;;;;;;6.57;6.17;;;;;;;;;;1902535;75;24324;-82
2022/09/24 11:28:39;;;;;;;6.33;5.93;;;;;;;;;;1937545;73;24164;-83
2022/09/24 11:31:09;;;;;;;6.33;6.03;;;;;;;;;;1940394;72;24183;-81
2022/09/24 11:33:44;;;;;;;6.50;6.10;;;;;;;;;;1907030;75;24227;-82
2022/09/24 11:36:23;;;;;;;6.10;5.73;;;;;;;;;;1953108;73;26674;-82
2022/09/24 11:38:56;;;;;;;6.70;6.30;;;;;;;;;;1906940;75;24223;-83
2022/09/24 11:41:28;;;;;;;6.00;5.60;;;;;;;;;;1953966;73;24212;-82
2022/09/24 11:44:30;;;;;;;5.87;5.67;;;;;;;;;;1907046;75;24353;-83
2022/09/24 11:50:17;;;;;;;6.10;5.80;;;;;;;17.58;100.00;100093.30;2013804;71;25844;-82
2022/09/24 11:52:52;;;;;;;6.70;6.10;;;;;;;17.71;100.00;100108.37;1941111;73;24147;-82
2022/09/24 11:55:30;;;;;;;6.53;6.23;;;;;;;17.84;100.00;100120.44;1935587;73;26635;-83
2022/09/24 11:58:02;;;;;;;6.37;5.97;;;;;;;17.34;100.00;100128.32;1933489;73;24146;-82
2022/09/24 12:00:36;;;;;;;6.30;5.90;;;;;;;17.28;100.00;100115.12;1935770;73;24154;-82
2022/09/24 12:03:11;;;;;;;6.37;5.93;;;;;;;17.56;100.00;100123.68;1887513;75;24208;-82
2022/09/24 12:05:45;;;;;;;5.90;5.60;;;;;;;18.01;100.00;100127.83;1894137;75;24235;-84
2022/09/24 12:08:18;;;;;;;6.37;5.97;;;;;;;18.26;100.00;100128.02;1934160;73;24208;-83
2022/09/24 12:10:52;;;;;;;6.10;5.77;;;;;;;17.97;100.00;100112.84;1882111;75;26774;-85
2022/09/24 12:13:26;;;;;;;6.20;5.90;;;;;;;17.77;100.00;100107.57;1892788;75;24146;-82
2022/09/24 12:15:58;;;;;;;6.73;6.23;;;;;;;17.60;100.00;100104.98;1886804;75;24393;-84
2022/09/24 12:18:32;;;;;;;6.67;6.27;;;;;;;18.08;100.00;100109.19;1882649;75;24246;-85
2022/09/24 12:21:06;;;;;;;7.57;7.07;;;;;;;17.83;100.00;100121.63;1894065;75;24651;-84
2022/09/24 12:23:39;;;;;;;6.07;5.70;;;;;;;17.63;100.00;100114.11;1936505;73;24146;-83
2022/09/24 12:26:11;;;;;;;6.07;5.67;;;;;;;17.14;100.00;100153.89;1894410;75;24242;-84
2022/09/24 12:34:28;;;;;;;5.97;5.53;;;;;;;17.70;100.00;100143.86;1884899;75;24169;-82
2022/09/24 12:37:02;;;;;;;5.90;5.60;;;;;;;18.02;100.00;100129.44;1882728;75;24208;-82
2022/09/24 12:39:36;;;;;;;6.60;6.30;;;;;;;18.69;100.00;100120.33;1885686;75;24165;-83
2022/09/24 12:42:09;;;;;;;6.53;6.30;;;;;;;18.87;100.00;100098.33;1935403;73;24159;-83
2022/09/24 12:44:44;;;;;;;7.10;6.60;;;;;;;18.51;100.00;100109.91;1877248;76;24279;-83
2022/09/24 12:47:22;;;;;;;6.90;6.60;;;;;;;18.71;100.00;100111.50;1859513;76;26323;-83
2022/09/24 12:49:56;;;;;;;7.30;6.90;;;;;;;18.96;100.00;100121.48;1864521;76;24696;-81
2022/09/24 12:55:34;;;;;;;6.80;6.50;;;;;;;18.10;100.00;100106.01;1984521;72;25973;-82
2022/09/24 13:01:15;;;;;;;7.03;6.43;;;;;;;19.21;100.00;100089.81;2053517;69;25476;-83
2022/09/24 13:03:46;;;;;;;6.70;6.30;;;;;;;19.55;100.00;100114.48;1935588;73;24157;-84
2022/09/24 13:06:22;;;;;;;7.70;7.10;;;;;;;;;;1934637;73;24172;-83
2022/09/24 13:08:50;;;;;;;6.80;6.37;;;;;;;;;;1946546;73;24138;-84
2022/09/24 13:11:35;;;;;;;6.30;6.00;;;;;;;;;;1946268;73;24276;-82